sensor_id;sensor_type;location;lat;lon;timestamp;P1;durP1;ratioP1;P2;durP2;ratioP2
6665;SDS011;3369;49.906;8.598;2023-05-02T00:00:47;1.60;;;1.50;;
6665;SDS011;3369;49.906;8.598;2023-05-02T00:03:13;1.70;;;1.60;;
6665;SDS011;3369;49.906;8.598;2023-05-02T00:05:40;1.50;;;1.40;;
6665;SDS011;3369;49.906;8.598;2023-05-02T00:08:06;1.60;;;1.50;;
6665;SDS011;3369;49.906;8.598;2023-05-02T00:10:32;1.50;;;1.40;;
6665;SDS011;3369;49.906;8.598;2023-05-02T00:12:58;1.80;;;1.70;;
6665;SDS011;3369;49.906;8.598;2023-05-02T00:15:23;1.50;;;1.40;;
6665;SDS011;3369;49.906;8.598;2023-05-02T00:17:51;1.43;;;1.33;;
6665;SDS011;3369;49.906;8.598;2023-05-02T00:20:17;1.50;;;1.40;;
6665;SDS011;3369;49.906;8.598;2023-05-02T00:22:42;1.90;;;1.67;;
6665;SDS011;3369;49.906;8.598;2023-05-02T00:25:08;2.53;;;1.47;;
6665;SDS011;3369;49.906;8.598;2023-05-02T00:27:34;1.20;;;1.20;;
6665;SDS011;3369;49.906;8.598;2023-05-02T00:29:59;1.70;;;1.60;;
6665;SDS011;3369;49.906;8.598;2023-05-02T00:32:26;1.80;;;1.70;;
6665;SDS011;3369;49.906;8.598;2023-05-02T00:34:52;2.37;;;2.17;;
6665;SDS011;3369;49.906;8.598;2023-05-02T00:37:18;2.07;;;1.97;;
6665;SDS011;3369;49.906;8.598;2023-05-02T00:39:43;2.00;;;1.90;;
6665;SDS011;3369;49.906;8.598;2023-05-02T00:42:09;1.90;;;1.80;;
6665;SDS011;3369;49.906;8.598;2023-05-02T00:44:35;2.33;;;2.13;;
6665;SDS011;3369;49.906;8.598;2023-05-02T00:47:01;2.10;;;2.00;;
6665;SDS011;3369;49.906;8.598;2023-05-02T00:49:27;1.90;;;1.80;;
6665;SDS011;3369;49.906;8.598;2023-05-02T00:51:53;2.47;;;2.03;;
6665;SDS011;3369;49.906;8.598;2023-05-02T00:54:19;3.50;;;2.00;;
6665;SDS011;3369;49.906;8.598;2023-05-02T00:56:45;2.23;;;2.13;;
6665;SDS011;3369;49.906;8.598;2023-05-02T00:59:11;3.00;;;2.80;;
6665;SDS011;3369;49.906;8.598;2023-05-02T01:29:33;5.40;;;4.60;;
6665;SDS011;3369;49.906;8.598;2023-05-02T01:32:00;5.40;;;4.83;;
6665;SDS011;3369;49.906;8.598;2023-05-02T01:34:28;4.37;;;3.97;;
6665;SDS011;3369;49.906;8.598;2023-05-02T01:36:54;4.30;;;3.83;;
6665;SDS011;3369;49.906;8.598;2023-05-02T01:39:24;4.60;;;4.20;;
6665;SDS011;3369;49.906;8.598;2023-05-02T01:41:51;4.87;;;4.47;;
6665;SDS011;3369;49.906;8.598;2023-05-02T01:44:20;5.00;;;4.53;;
6665;SDS011;3369;49.906;8.598;2023-05-02T01:46:47;5.87;;;5.03;;
6665;SDS011;3369;49.906;8.598;2023-05-02T01:49:15;4.40;;;4.00;;
6665;SDS011;3369;49.906;8.598;2023-05-02T01:51:43;4.87;;;4.47;;
6665;SDS011;3369;49.906;8.598;2023-05-02T01:54:14;5.40;;;4.90;;
6665;SDS011;3369;49.906;8.598;2023-05-02T01:56:41;4.73;;;4.33;;
6665;SDS011;3369;49.906;8.598;2023-05-02T01:59:10;4.70;;;4.30;;
6665;SDS011;3369;49.906;8.598;2023-05-02T02:01:39;4.70;;;4.30;;
6665;SDS011;3369;49.906;8.598;2023-05-02T02:04:08;5.47;;;4.33;;
6665;SDS011;3369;49.906;8.598;2023-05-02T02:06:35;4.07;;;3.77;;
6665;SDS011;3369;49.906;8.598;2023-05-02T02:09:01;4.87;;;4.40;;
6665;SDS011;3369;49.906;8.598;2023-05-02T02:11:40;5.20;;;4.80;;
6665;SDS011;3369;49.906;8.598;2023-05-02T02:14:17;5.03;;;4.63;;
6665;SDS011;3369;49.906;8.598;2023-05-02T02:16:45;4.23;;;3.93;;
6665;SDS011;3369;49.906;8.598;2023-05-02T02:19:12;4.97;;;4.57;;
6665;SDS011;3369;49.906;8.598;2023-05-02T02:21:39;4.70;;;4.30;;
6665;SDS011;3369;49.906;8.598;2023-05-02T02:24:07;4.27;;;3.87;;
6665;SDS011;3369;49.906;8.598;2023-05-02T02:26:35;4.63;;;4.23;;
6665;SDS011;3369;49.906;8.598;2023-05-02T02:29:02;5.33;;;4.50;;
6665;SDS011;3369;49.906;8.598;2023-05-02T02:31:34;4.80;;;4.40;;
6665;SDS011;3369;49.906;8.598;2023-05-02T02:34:03;5.10;;;4.70;;
6665;SDS011;3369;49.906;8.598;2023-05-02T02:36:44;6.77;;;5.87;;
6665;SDS011;3369;49.906;8.598;2023-05-02T02:39:45;6.67;;;6.07;;
6665;SDS011;3369;49.906;8.598;2023-05-02T02:42:24;6.10;;;5.53;;
6665;SDS011;3369;49.906;8.598;2023-05-02T02:44:55;6.20;;;5.50;;
6665;SDS011;3369;49.906;8.598;2023-05-02T02:47:57;5.60;;;5.10;;
6665;SDS011;3369;49.906;8.598;2023-05-02T02:53:19;7.23;;;5.90;;
6665;SDS011;3369;49.906;8.598;2023-05-02T02:55:55;5.87;;;5.30;;
6665;SDS011;3369;49.906;8.598;2023-05-02T02:58:33;5.37;;;4.90;;
6665;SDS011;3369;49.906;8.598;2023-05-02T03:01:21;6.93;;;6.23;;
6665;SDS011;3369;49.906;8.598;2023-05-02T03:03:50;6.63;;;6.03;;
6665;SDS011;3369;49.906;8.598;2023-05-02T03:06:17;6.90;;;6.30;;
6665;SDS011;3369;49.906;8.598;2023-05-02T03:08:43;7.70;;;6.90;;
6665;SDS011;3369;49.906;8.598;2023-05-02T03:11:09;7.83;;;6.73;;
6665;SDS011;3369;49.906;8.598;2023-05-02T03:13:35;7.53;;;6.83;;
6665;SDS011;3369;49.906;8.598;2023-05-02T03:18:35;8.33;;;7.63;;
6665;SDS011;3369;49.906;8.598;2023-05-02T03:21:01;8.80;;;8.00;;
6665;SDS011;3369;49.906;8.598;2023-05-02T03:23:26;8.63;;;7.80;;
6665;SDS011;3369;49.906;8.598;2023-05-02T03:25:52;10.43;;;8.93;;
6665;SDS011;3369;49.906;8.598;2023-05-02T03:28:18;10.07;;;9.07;;
6665;SDS011;3369;49.906;8.598;2023-05-02T03:30:43;9.77;;;8.87;;
6665;SDS011;3369;49.906;8.598;2023-05-02T03:33:09;12.60;;;10.17;;
6665;SDS011;3369;49.906;8.598;2023-05-02T03:35:35;9.40;;;8.50;;
6665;SDS011;3369;49.906;8.598;2023-05-02T03:38:00;10.00;;;8.90;;
6665;SDS011;3369;49.906;8.598;2023-05-02T03:40:26;9.23;;;8.43;;
6665;SDS011;3369;49.906;8.598;2023-05-02T03:42:51;9.00;;;8.20;;
6665;SDS011;3369;49.906;8.598;2023-05-02T03:45:17;9.07;;;8.30;;
6665;SDS011;3369;49.906;8.598;2023-05-02T03:47:43;8.60;;;7.80;;
6665;SDS011;3369;49.906;8.598;2023-05-02T03:50:08;8.30;;;7.53;;
6665;SDS011;3369;49.906;8.598;2023-05-02T03:52:34;8.20;;;7.43;;
6665;SDS011;3369;49.906;8.598;2023-05-02T03:55:00;9.60;;;7.90;;
6665;SDS011;3369;49.906;8.598;2023-05-02T03:57:28;8.73;;;7.93;;
6665;SDS011;3369;49.906;8.598;2023-05-02T03:59:54;10.23;;;8.17;;
6665;SDS011;3369;49.906;8.598;2023-05-02T04:02:20;9.27;;;7.73;;
6665;SDS011;3369;49.906;8.598;2023-05-02T04:04:45;9.97;;;8.97;;
6665;SDS011;3369;49.906;8.598;2023-05-02T04:07:11;8.37;;;7.63;;
6665;SDS011;3369;49.906;8.598;2023-05-02T04:09:42;9.50;;;8.60;;
6665;SDS011;3369;49.906;8.598;2023-05-02T04:12:08;9.43;;;8.53;;
6665;SDS011;3369;49.906;8.598;2023-05-02T04:14:33;9.00;;;7.97;;
6665;SDS011;3369;49.906;8.598;2023-05-02T04:16:59;10.33;;;9.37;;
6665;SDS011;3369;49.906;8.598;2023-05-02T04:19:25;12.73;;;11.43;;
6665;SDS011;3369;49.906;8.598;2023-05-02T04:21:51;13.97;;;11.43;;
6665;SDS011;3369;49.906;8.598;2023-05-02T04:24:17;12.77;;;11.50;;
6665;SDS011;3369;49.906;8.598;2023-05-02T04:26:43;13.77;;;11.53;;
6665;SDS011;3369;49.906;8.598;2023-05-02T04:29:11;13.73;;;12.33;;
6665;SDS011;3369;49.906;8.598;2023-05-02T04:31:37;14.13;;;12.47;;
6665;SDS011;3369;49.906;8.598;2023-05-02T04:34:03;13.63;;;10.97;;
6665;SDS011;3369;49.906;8.598;2023-05-02T04:36:30;12.70;;;11.50;;
6665;SDS011;3369;49.906;8.598;2023-05-02T04:38:56;11.70;;;10.67;;
6665;SDS011;3369;49.906;8.598;2023-05-02T04:41:21;12.57;;;11.27;;
6665;SDS011;3369;49.906;8.598;2023-05-02T04:43:47;12.47;;;11.27;;
6665;SDS011;3369;49.906;8.598;2023-05-02T04:46:13;11.67;;;10.57;;
6665;SDS011;3369;49.906;8.598;2023-05-02T04:48:38;12.47;;;11.27;;
6665;SDS011;3369;49.906;8.598;2023-05-02T04:51:06;12.67;;;11.37;;
6665;SDS011;3369;49.906;8.598;2023-05-02T04:53:35;14.33;;;12.80;;
6665;SDS011;3369;49.906;8.598;2023-05-02T04:56:03;16.07;;;14.37;;
6665;SDS011;3369;49.906;8.598;2023-05-02T04:58:29;16.23;;;14.63;;
6665;SDS011;3369;49.906;8.598;2023-05-02T05:00:55;16.33;;;14.63;;
6665;SDS011;3369;49.906;8.598;2023-05-02T05:03:21;17.47;;;15.53;;
6665;SDS011;3369;49.906;8.598;2023-05-02T05:05:46;17.43;;;15.60;;
6665;SDS011;3369;49.906;8.598;2023-05-02T05:08:12;15.97;;;14.27;;
6665;SDS011;3369;49.906;8.598;2023-05-02T05:10:38;21.40;;;14.83;;
6665;SDS011;3369;49.906;8.598;2023-05-02T05:13:06;19.83;;;17.43;;
6665;SDS011;3369;49.906;8.598;2023-05-02T05:15:32;17.10;;;15.40;;
6665;SDS011;3369;49.906;8.598;2023-05-02T05:17:57;18.43;;;16.20;;
6665;SDS011;3369;49.906;8.598;2023-05-02T05:20:23;16.17;;;14.47;;
6665;SDS011;3369;49.906;8.598;2023-05-02T05:22:48;17.60;;;15.90;;
6665;SDS011;3369;49.906;8.598;2023-05-02T05:25:14;18.63;;;16.63;;
6665;SDS011;3369;49.906;8.598;2023-05-02T05:27:40;18.10;;;16.30;;
6665;SDS011;3369;49.906;8.598;2023-05-02T05:30:06;19.67;;;17.17;;
6665;SDS011;3369;49.906;8.598;2023-05-02T05:32:33;23.83;;;21.23;;
6665;SDS011;3369;49.906;8.598;2023-05-02T05:34:59;23.63;;;21.07;;
6665;SDS011;3369;49.906;8.598;2023-05-02T05:37:25;22.07;;;19.67;;
6665;SDS011;3369;49.906;8.598;2023-05-02T05:39:51;24.17;;;21.47;;
6665;SDS011;3369;49.906;8.598;2023-05-02T05:42:16;28.30;;;24.33;;
6665;SDS011;3369;49.906;8.598;2023-05-02T05:44:42;31.40;;;26.37;;
6665;SDS011;3369;49.906;8.598;2023-05-02T05:47:08;24.07;;;21.57;;
6665;SDS011;3369;49.906;8.598;2023-05-02T05:49:34;25.97;;;22.53;;
6665;SDS011;3369;49.906;8.598;2023-05-02T05:52:02;27.77;;;22.83;;
6665;SDS011;3369;49.906;8.598;2023-05-02T05:54:28;25.03;;;22.33;;
6665;SDS011;3369;49.906;8.598;2023-05-02T05:56:54;24.37;;;21.63;;
6665;SDS011;3369;49.906;8.598;2023-05-02T05:59:19;27.00;;;23.30;;
6665;SDS011;3369;49.906;8.598;2023-05-02T06:01:45;29.90;;;25.57;;
6665;SDS011;3369;49.906;8.598;2023-05-02T06:04:10;29.50;;;25.47;;
6665;SDS011;3369;49.906;8.598;2023-05-02T06:06:36;25.97;;;23.07;;
6665;SDS011;3369;49.906;8.598;2023-05-02T06:09:02;28.97;;;24.40;;
6665;SDS011;3369;49.906;8.598;2023-05-02T06:11:28;26.87;;;23.57;;
6665;SDS011;3369;49.906;8.598;2023-05-02T06:13:53;29.27;;;24.93;;
6665;SDS011;3369;49.906;8.598;2023-05-02T06:16:19;25.00;;;22.27;;
6665;SDS011;3369;49.906;8.598;2023-05-02T06:18:45;33.50;;;26.00;;
6665;SDS011;3369;49.906;8.598;2023-05-02T06:21:11;31.33;;;26.33;;
6665;SDS011;3369;49.906;8.598;2023-05-02T06:23:38;29.93;;;25.53;;
6665;SDS011;3369;49.906;8.598;2023-05-02T06:26:05;30.77;;;26.07;;
6665;SDS011;3369;49.906;8.598;2023-05-02T06:28:30;35.20;;;27.67;;
6665;SDS011;3369;49.906;8.598;2023-05-02T06:30:57;31.80;;;26.23;;
6665;SDS011;3369;49.906;8.598;2023-05-02T06:33:22;27.10;;;23.87;;
6665;SDS011;3369;49.906;8.598;2023-05-02T06:35:51;27.30;;;23.33;;
6665;SDS011;3369;49.906;8.598;2023-05-02T06:38:17;28.97;;;24.73;;
6665;SDS011;3369;49.906;8.598;2023-05-02T06:40:43;33.47;;;27.67;;
6665;SDS011;3369;49.906;8.598;2023-05-02T06:43:11;31.50;;;24.53;;
6665;SDS011;3369;49.906;8.598;2023-05-02T06:45:38;30.57;;;24.77;;
6665;SDS011;3369;49.906;8.598;2023-05-02T06:48:04;29.10;;;23.80;;
6665;SDS011;3369;49.906;8.598;2023-05-02T06:50:29;29.27;;;24.27;;
6665;SDS011;3369;49.906;8.598;2023-05-02T07:13:04;24.03;;;20.23;;
6665;SDS011;3369;49.906;8.598;2023-05-02T07:15:30;31.57;;;24.90;;
6665;SDS011;3369;49.906;8.598;2023-05-02T07:17:56;30.50;;;24.43;;
6665;SDS011;3369;49.906;8.598;2023-05-02T07:20:21;25.60;;;21.23;;
6665;SDS011;3369;49.906;8.598;2023-05-02T07:22:47;29.47;;;24.60;;
6665;SDS011;3369;49.906;8.598;2023-05-02T07:25:12;24.97;;;21.20;;
6665;SDS011;3369;49.906;8.598;2023-05-02T07:27:38;23.20;;;20.67;;
6665;SDS011;3369;49.906;8.598;2023-05-02T07:30:04;22.23;;;19.93;;
6665;SDS011;3369;49.906;8.598;2023-05-02T07:32:30;25.13;;;20.67;;
6665;SDS011;3369;49.906;8.598;2023-05-02T07:34:56;23.50;;;19.70;;
6665;SDS011;3369;49.906;8.598;2023-05-02T07:37:22;23.97;;;19.03;;
6665;SDS011;3369;49.906;8.598;2023-05-02T07:39:48;19.67;;;17.47;;
6665;SDS011;3369;49.906;8.598;2023-05-02T07:42:13;21.97;;;17.87;;
6665;SDS011;3369;49.906;8.598;2023-05-02T07:44:39;20.80;;;17.27;;
6665;SDS011;3369;49.906;8.598;2023-05-02T07:47:05;21.10;;;18.40;;
6665;SDS011;3369;49.906;8.598;2023-05-02T07:49:32;19.93;;;17.83;;
6665;SDS011;3369;49.906;8.598;2023-05-02T07:51:57;19.07;;;16.97;;
6665;SDS011;3369;49.906;8.598;2023-05-02T07:54:23;18.93;;;16.93;;
6665;SDS011;3369;49.906;8.598;2023-05-02T07:56:51;17.17;;;14.80;;
6665;SDS011;3369;49.906;8.598;2023-05-02T07:59:17;16.80;;;15.00;;
6665;SDS011;3369;49.906;8.598;2023-05-02T08:01:43;19.73;;;15.80;;
6665;SDS011;3369;49.906;8.598;2023-05-02T08:04:09;17.30;;;14.60;;
6665;SDS011;3369;49.906;8.598;2023-05-02T08:06:35;21.03;;;16.37;;
6665;SDS011;3369;49.906;8.598;2023-05-02T08:09:01;35.67;;;18.97;;
6665;SDS011;3369;49.906;8.598;2023-05-02T08:11:27;28.90;;;16.00;;
6665;SDS011;3369;49.906;8.598;2023-05-02T08:13:53;23.07;;;15.03;;
6665;SDS011;3369;49.906;8.598;2023-05-02T08:16:19;24.67;;;15.07;;
6665;SDS011;3369;49.906;8.598;2023-05-02T08:18:45;21.97;;;12.90;;
6665;SDS011;3369;49.906;8.598;2023-05-02T08:21:11;16.63;;;13.50;;
6665;SDS011;3369;49.906;8.598;2023-05-02T08:23:39;29.40;;;16.90;;
6665;SDS011;3369;49.906;8.598;2023-05-02T08:26:05;24.40;;;15.63;;
6665;SDS011;3369;49.906;8.598;2023-05-02T08:28:31;21.00;;;13.97;;
6665;SDS011;3369;49.906;8.598;2023-05-02T08:30:57;17.50;;;11.87;;
6665;SDS011;3369;49.906;8.598;2023-05-02T08:33:22;14.67;;;11.40;;
6665;SDS011;3369;49.906;8.598;2023-05-02T08:35:48;15.37;;;12.37;;
6665;SDS011;3369;49.906;8.598;2023-05-02T08:38:14;16.73;;;11.60;;
6665;SDS011;3369;49.906;8.598;2023-05-02T08:40:39;19.97;;;11.83;;
6665;SDS011;3369;49.906;8.598;2023-05-02T08:43:05;17.00;;;12.47;;
6665;SDS011;3369;49.906;8.598;2023-05-02T08:45:34;16.23;;;11.70;;
6665;SDS011;3369;49.906;8.598;2023-05-02T08:48:07;14.03;;;11.30;;
6665;SDS011;3369;49.906;8.598;2023-05-02T08:50:38;15.57;;;10.93;;
6665;SDS011;3369;49.906;8.598;2023-05-02T08:53:05;18.67;;;12.97;;
6665;SDS011;3369;49.906;8.598;2023-05-02T08:55:32;14.50;;;11.63;;
6665;SDS011;3369;49.906;8.598;2023-05-02T08:58:00;14.93;;;11.67;;
6665;SDS011;3369;49.906;8.598;2023-05-02T09:00:28;16.27;;;12.67;;
6665;SDS011;3369;49.906;8.598;2023-05-02T09:05:39;14.63;;;11.53;;
6665;SDS011;3369;49.906;8.598;2023-05-02T09:08:06;12.43;;;9.37;;
6665;SDS011;3369;49.906;8.598;2023-05-02T09:10:33;15.10;;;11.43;;
6665;SDS011;3369;49.906;8.598;2023-05-02T09:16:06;13.50;;;10.97;;
6665;SDS011;3369;49.906;8.598;2023-05-02T09:18:53;13.10;;;10.03;;
6665;SDS011;3369;49.906;8.598;2023-05-02T09:21:21;9.73;;;8.20;;
6665;SDS011;3369;49.906;8.598;2023-05-02T09:23:47;10.13;;;8.50;;
6665;SDS011;3369;49.906;8.598;2023-05-02T09:26:18;20.43;;;11.67;;
6665;SDS011;3369;49.906;8.598;2023-05-02T09:28:46;20.13;;;10.77;;
6665;SDS011;3369;49.906;8.598;2023-05-02T09:31:16;16.23;;;9.83;;
6665;SDS011;3369;49.906;8.598;2023-05-02T09:33:44;12.67;;;9.03;;
6665;SDS011;3369;49.906;8.598;2023-05-02T09:36:13;13.97;;;8.63;;
6665;SDS011;3369;49.906;8.598;2023-05-02T09:38:40;17.10;;;9.77;;
6665;SDS011;3369;49.906;8.598;2023-05-02T09:41:07;11.90;;;9.03;;
6665;SDS011;3369;49.906;8.598;2023-05-02T09:43:33;11.87;;;8.07;;
6665;SDS011;3369;49.906;8.598;2023-05-02T09:45:59;10.33;;;8.07;;
6665;SDS011;3369;49.906;8.598;2023-05-02T09:48:27;7.47;;;6.53;;
6665;SDS011;3369;49.906;8.598;2023-05-02T09:50:54;9.60;;;8.37;;
6665;SDS011;3369;49.906;8.598;2023-05-02T09:53:21;9.43;;;7.83;;
6665;SDS011;3369;49.906;8.598;2023-05-02T09:55:51;10.10;;;8.57;;
6665;SDS011;3369;49.906;8.598;2023-05-02T09:58:27;8.33;;;7.43;;
6665;SDS011;3369;49.906;8.598;2023-05-02T10:00:55;8.67;;;7.70;;
6665;SDS011;3369;49.906;8.598;2023-05-02T10:03:22;8.67;;;7.63;;
6665;SDS011;3369;49.906;8.598;2023-05-02T10:05:49;11.87;;;9.00;;
6665;SDS011;3369;49.906;8.598;2023-05-02T10:08:17;12.03;;;8.60;;
6665;SDS011;3369;49.906;8.598;2023-05-02T10:10:46;8.47;;;7.27;;
6665;SDS011;3369;49.906;8.598;2023-05-02T10:13:17;8.63;;;7.73;;
6665;SDS011;3369;49.906;8.598;2023-05-02T10:15:47;9.47;;;7.87;;
6665;SDS011;3369;49.906;8.598;2023-05-02T10:18:38;11.47;;;8.70;;
6665;SDS011;3369;49.906;8.598;2023-05-02T10:21:09;9.23;;;7.63;;
6665;SDS011;3369;49.906;8.598;2023-05-02T10:23:37;8.73;;;7.40;;
6665;SDS011;3369;49.906;8.598;2023-05-02T10:26:07;9.40;;;7.90;;
6665;SDS011;3369;49.906;8.598;2023-05-02T10:28:34;9.57;;;8.03;;
6665;SDS011;3369;49.906;8.598;2023-05-02T10:31:01;11.20;;;8.03;;
6665;SDS011;3369;49.906;8.598;2023-05-02T10:33:29;9.20;;;7.60;;
6665;SDS011;3369;49.906;8.598;2023-05-02T10:35:58;9.57;;;8.00;;
6665;SDS011;3369;49.906;8.598;2023-05-02T10:38:24;10.17;;;8.60;;
6665;SDS011;3369;49.906;8.598;2023-05-02T10:40:55;10.70;;;8.10;;
6665;SDS011;3369;49.906;8.598;2023-05-02T10:43:26;10.27;;;8.20;;
6665;SDS011;3369;49.906;8.598;2023-05-02T10:46:00;9.87;;;7.27;;
6665;SDS011;3369;49.906;8.598;2023-05-02T10:48:29;11.13;;;8.50;;
6665;SDS011;3369;49.906;8.598;2023-05-02T10:50:56;10.57;;;7.80;;
6665;SDS011;3369;49.906;8.598;2023-05-02T10:53:27;6.50;;;5.87;;
6665;SDS011;3369;49.906;8.598;2023-05-02T10:56:16;6.43;;;5.77;;
6665;SDS011;3369;49.906;8.598;2023-05-02T10:58:40;7.27;;;6.17;;
6665;SDS011;3369;49.906;8.598;2023-05-02T11:04:06;9.00;;;6.43;;
6665;SDS011;3369;49.906;8.598;2023-05-02T11:06:34;8.73;;;6.60;;
6665;SDS011;3369;49.906;8.598;2023-05-02T11:11:45;8.37;;;6.63;;
6665;SDS011;3369;49.906;8.598;2023-05-02T11:19:28;6.43;;;5.43;;
6665;SDS011;3369;49.906;8.598;2023-05-02T11:24:52;7.80;;;6.03;;
6665;SDS011;3369;49.906;8.598;2023-05-02T11:33:10;5.07;;;4.57;;
6665;SDS011;3369;49.906;8.598;2023-05-02T11:37:43;5.37;;;4.77;;
6665;SDS011;3369;49.906;8.598;2023-05-02T11:40:21;5.10;;;4.47;;
6665;SDS011;3369;49.906;8.598;2023-05-02T11:42:47;6.37;;;5.17;;
6665;SDS011;3369;49.906;8.598;2023-05-02T11:45:13;5.77;;;4.27;;
6665;SDS011;3369;49.906;8.598;2023-05-02T11:47:39;5.33;;;4.77;;
6665;SDS011;3369;49.906;8.598;2023-05-02T11:50:06;4.33;;;3.80;;
6665;SDS011;3369;49.906;8.598;2023-05-02T11:52:36;3.67;;;3.00;;
6665;SDS011;3369;49.906;8.598;2023-05-02T11:55:12;3.73;;;3.37;;
6665;SDS011;3369;49.906;8.598;2023-05-02T11:57:39;5.33;;;4.17;;
6665;SDS011;3369;49.906;8.598;2023-05-02T12:00:05;4.67;;;4.13;;
6665;SDS011;3369;49.906;8.598;2023-05-02T12:05:02;4.40;;;3.97;;
6665;SDS011;3369;49.906;8.598;2023-05-02T12:07:45;5.27;;;3.80;;
6665;SDS011;3369;49.906;8.598;2023-05-02T12:10:13;3.77;;;3.43;;
6665;SDS011;3369;49.906;8.598;2023-05-02T12:12:40;3.40;;;2.90;;
6665;SDS011;3369;49.906;8.598;2023-05-02T12:15:09;3.50;;;2.77;;
6665;SDS011;3369;49.906;8.598;2023-05-02T12:17:37;3.00;;;2.80;;
6665;SDS011;3369;49.906;8.598;2023-05-02T12:20:08;3.53;;;2.90;;
6665;SDS011;3369;49.906;8.598;2023-05-02T12:22:35;3.03;;;2.57;;
6665;SDS011;3369;49.906;8.598;2023-05-02T12:25:01;3.30;;;3.00;;
6665;SDS011;3369;49.906;8.598;2023-05-02T12:27:29;3.10;;;2.80;;
6665;SDS011;3369;49.906;8.598;2023-05-02T12:29:57;3.50;;;3.07;;
6665;SDS011;3369;49.906;8.598;2023-05-02T12:32:29;2.63;;;2.20;;
6665;SDS011;3369;49.906;8.598;2023-05-02T12:35:00;2.60;;;2.27;;
6665;SDS011;3369;49.906;8.598;2023-05-02T12:37:26;3.03;;;2.72;;
6665;SDS011;3369;49.906;8.598;2023-05-02T12:39:53;2.87;;;2.43;;
6665;SDS011;3369;49.906;8.598;2023-05-02T12:42:23;2.53;;;2.33;;
6665;SDS011;3369;49.906;8.598;2023-05-02T12:44:50;3.03;;;2.73;;
6665;SDS011;3369;49.906;8.598;2023-05-02T12:47:17;3.10;;;2.70;;
6665;SDS011;3369;49.906;8.598;2023-05-02T12:49:50;2.50;;;2.30;;
6665;SDS011;3369;49.906;8.598;2023-05-02T12:55:18;19.87;;;4.23;;
6665;SDS011;3369;49.906;8.598;2023-05-02T12:58:02;14.57;;;5.73;;
6665;SDS011;3369;49.906;8.598;2023-05-02T13:00:29;8.37;;;5.67;;
6665;SDS011;3369;49.906;8.598;2023-05-02T13:02:56;9.67;;;5.80;;
6665;SDS011;3369;49.906;8.598;2023-05-02T13:05:22;8.53;;;5.67;;
6665;SDS011;3369;49.906;8.598;2023-05-02T13:07:47;6.90;;;5.37;;
6665;SDS011;3369;49.906;8.598;2023-05-02T13:29:40;6.90;;;5.53;;
6665;SDS011;3369;49.906;8.598;2023-05-02T13:32:06;9.70;;;4.77;;
6665;SDS011;3369;49.906;8.598;2023-05-02T13:34:31;4.30;;;3.70;;
6665;SDS011;3369;49.906;8.598;2023-05-02T13:36:57;5.87;;;3.87;;
6665;SDS011;3369;49.906;8.598;2023-05-02T13:39:22;6.03;;;3.50;;
6665;SDS011;3369;49.906;8.598;2023-05-02T13:41:48;6.47;;;3.57;;
6665;SDS011;3369;49.906;8.598;2023-05-02T13:44:14;5.90;;;3.33;;
6665;SDS011;3369;49.906;8.598;2023-05-02T13:46:39;3.73;;;3.27;;
6665;SDS011;3369;49.906;8.598;2023-05-02T13:49:05;5.10;;;3.77;;
6665;SDS011;3369;49.906;8.598;2023-05-02T13:51:31;4.30;;;3.17;;
6665;SDS011;3369;49.906;8.598;2023-05-02T13:53:57;3.37;;;2.80;;
6665;SDS011;3369;49.906;8.598;2023-05-02T13:56:23;2.73;;;2.53;;
6665;SDS011;3369;49.906;8.598;2023-05-02T13:58:48;3.17;;;2.90;;
6665;SDS011;3369;49.906;8.598;2023-05-02T14:01:14;3.17;;;2.87;;
6665;SDS011;3369;49.906;8.598;2023-05-02T14:03:40;5.20;;;3.17;;
6665;SDS011;3369;49.906;8.598;2023-05-02T14:06:06;3.23;;;2.63;;
6665;SDS011;3369;49.906;8.598;2023-05-02T14:08:31;2.93;;;2.57;;
6665;SDS011;3369;49.906;8.598;2023-05-02T14:10:57;3.13;;;2.73;;
6665;SDS011;3369;49.906;8.598;2023-05-02T14:13:23;2.43;;;2.23;;
6665;SDS011;3369;49.906;8.598;2023-05-02T14:15:49;2.43;;;2.23;;
6665;SDS011;3369;49.906;8.598;2023-05-02T14:18:15;2.93;;;2.63;;
6665;SDS011;3369;49.906;8.598;2023-05-02T14:20:41;3.17;;;2.93;;
6665;SDS011;3369;49.906;8.598;2023-05-02T14:23:07;3.00;;;2.80;;
6665;SDS011;3369;49.906;8.598;2023-05-02T14:25:33;3.80;;;3.50;;
6665;SDS011;3369;49.906;8.598;2023-05-02T14:28:00;3.70;;;3.40;;
6665;SDS011;3369;49.906;8.598;2023-05-02T14:30:26;4.13;;;3.70;;
6665;SDS011;3369;49.906;8.598;2023-05-02T14:32:52;4.73;;;3.70;;
6665;SDS011;3369;49.906;8.598;2023-05-02T14:35:18;4.00;;;3.70;;
6665;SDS011;3369;49.906;8.598;2023-05-02T14:37:44;4.13;;;3.77;;
6665;SDS011;3369;49.906;8.598;2023-05-02T14:40:11;4.33;;;3.93;;
6665;SDS011;3369;49.906;8.598;2023-05-02T14:42:38;3.60;;;3.30;;
6665;SDS011;3369;49.906;8.598;2023-05-02T14:45:08;4.07;;;3.73;;
6665;SDS011;3369;49.906;8.598;2023-05-02T14:47:34;4.97;;;4.50;;
6665;SDS011;3369;49.906;8.598;2023-05-02T14:50:01;4.27;;;3.87;;
6665;SDS011;3369;49.906;8.598;2023-05-02T14:52:28;4.10;;;3.80;;
6665;SDS011;3369;49.906;8.598;2023-05-02T14:54:53;3.80;;;3.50;;
6665;SDS011;3369;49.906;8.598;2023-05-02T14:57:19;3.90;;;3.60;;
6665;SDS011;3369;49.906;8.598;2023-05-02T14:59:45;4.13;;;3.83;;
6665;SDS011;3369;49.906;8.598;2023-05-02T15:02:11;3.90;;;3.60;;
6665;SDS011;3369;49.906;8.598;2023-05-02T15:04:37;4.10;;;3.80;;
6665;SDS011;3369;49.906;8.598;2023-05-02T15:07:02;4.20;;;3.90;;
6665;SDS011;3369;49.906;8.598;2023-05-02T15:09:28;4.73;;;4.23;;
6665;SDS011;3369;49.906;8.598;2023-05-02T15:11:54;4.53;;;4.13;;
6665;SDS011;3369;49.906;8.598;2023-05-02T15:14:20;4.87;;;4.00;;
6665;SDS011;3369;49.906;8.598;2023-05-02T15:16:46;4.10;;;3.80;;
6665;SDS011;3369;49.906;8.598;2023-05-02T15:19:12;4.03;;;3.47;;
6665;SDS011;3369;49.906;8.598;2023-05-02T15:21:38;4.20;;;3.80;;
6665;SDS011;3369;49.906;8.598;2023-05-02T15:24:04;4.40;;;4.00;;
6665;SDS011;3369;49.906;8.598;2023-05-02T15:26:30;4.20;;;3.77;;
6665;SDS011;3369;49.906;8.598;2023-05-02T15:28:56;4.50;;;4.10;;
6665;SDS011;3369;49.906;8.598;2023-05-02T15:31:22;3.80;;;3.50;;
6665;SDS011;3369;49.906;8.598;2023-05-02T15:33:48;4.30;;;3.90;;
6665;SDS011;3369;49.906;8.598;2023-05-02T15:36:14;4.30;;;3.93;;
6665;SDS011;3369;49.906;8.598;2023-05-02T15:38:40;4.03;;;3.30;;
6665;SDS011;3369;49.906;8.598;2023-05-02T15:41:07;4.13;;;3.80;;
6665;SDS011;3369;49.906;8.598;2023-05-02T15:43:34;4.37;;;4.03;;
6665;SDS011;3369;49.906;8.598;2023-05-02T15:46:01;3.57;;;3.07;;
6665;SDS011;3369;49.906;8.598;2023-05-02T15:48:27;4.90;;;3.80;;
6665;SDS011;3369;49.906;8.598;2023-05-02T15:50:54;4.10;;;3.70;;
6665;SDS011;3369;49.906;8.598;2023-05-02T15:53:20;4.50;;;3.40;;
6665;SDS011;3369;49.906;8.598;2023-05-02T15:55:47;7.00;;;4.13;;
6665;SDS011;3369;49.906;8.598;2023-05-02T15:58:14;3.90;;;3.47;;
6665;SDS011;3369;49.906;8.598;2023-05-02T16:00:43;3.97;;;3.57;;
6665;SDS011;3369;49.906;8.598;2023-05-02T16:03:10;3.20;;;3.00;;
6665;SDS011;3369;49.906;8.598;2023-05-02T16:05:39;3.73;;;3.43;;
6665;SDS011;3369;49.906;8.598;2023-05-02T16:08:05;3.23;;;3.00;;
6665;SDS011;3369;49.906;8.598;2023-05-02T16:10:31;2.90;;;2.70;;
6665;SDS011;3369;49.906;8.598;2023-05-02T16:12:56;3.20;;;2.90;;
6665;SDS011;3369;49.906;8.598;2023-05-02T16:15:22;3.23;;;2.93;;
6665;SDS011;3369;49.906;8.598;2023-05-02T16:17:49;3.13;;;2.90;;
6665;SDS011;3369;49.906;8.598;2023-05-02T16:20:15;4.27;;;2.90;;
6665;SDS011;3369;49.906;8.598;2023-05-02T16:22:42;3.47;;;2.90;;
6665;SDS011;3369;49.906;8.598;2023-05-02T16:25:12;5.63;;;3.03;;
6665;SDS011;3369;49.906;8.598;2023-05-02T16:27:38;2.90;;;2.70;;
6665;SDS011;3369;49.906;8.598;2023-05-02T16:30:05;2.70;;;2.50;;
6665;SDS011;3369;49.906;8.598;2023-05-02T16:32:31;2.53;;;2.33;;
6665;SDS011;3369;49.906;8.598;2023-05-02T16:34:57;2.97;;;2.40;;
6665;SDS011;3369;49.906;8.598;2023-05-02T16:37:22;3.73;;;2.77;;
6665;SDS011;3369;49.906;8.598;2023-05-02T16:39:48;2.20;;;2.03;;
6665;SDS011;3369;49.906;8.598;2023-05-02T16:42:14;2.60;;;2.20;;
6665;SDS011;3369;49.906;8.598;2023-05-02T16:44:40;3.13;;;2.30;;
6665;SDS011;3369;49.906;8.598;2023-05-02T16:47:08;2.93;;;2.00;;
6665;SDS011;3369;49.906;8.598;2023-05-02T16:49:34;2.53;;;2.33;;
6665;SDS011;3369;49.906;8.598;2023-05-02T16:51:59;2.27;;;2.10;;